Sao Pedro do Piaui, Brazil
Current Conditions -  °F | °C
As of 8:00 PM on Tuesday 27 Jan 2015 (Local Time) from SBTE Reporting Station
Clear Clear  
Wind Chill: 86°   Ceiling: Unl
Heat Index: 88°   Visibility: 6mi
Dew Point: 66°   Wind: 5mph
Humidity: 51%   Direction: 230°SW
Pressure: 29.8"   Gusts: NA
Location:  5.93°S, 42.72°W
Report Text: SBTE 272300Z 23004KT CAVOK 30/19 Q1009
Loading
Personal Weather Stations






























Interactive Weather Map New forecast layout! Learn more

10-Day Weather Forecast

Advertisements
Track Severe Weather on mobile